Time,TemperatureF,DewpointF,PressureIn,WindDirection,WindDirectionDegrees,WindSpeedMPH,WindSpeedGustMPH,Humidity,HourlyPrecipIn,Conditions,Clouds,dailyrainin,SoftwareType,DateUTC
2013-01-22 00:00:00,55.4,41.3,29.91,NW,315,0.0,1.6,59,0.00,,---,0.00,VWS V14.01,2013-01-22 05:00:00,
2013-01-22 00:01:00,57.4,42.7,29.91,WNW,292,1.3,2.5,58,0.00,,---,0.00,VWS V14.01,2013-01-22 05:01:00,
2013-01-22 00:03:00,57.2,42.6,29.91,NW,315,1.1,2.2,58,0.00,,---,0.00,VWS V14.01,2013-01-22 05:03:00,
2013-01-22 00:05:00,55.4,41.3,29.91,NNW,338,1.1,1.6,59,0.00,,---,0.00,VWS V14.01,2013-01-22 05:05:00,
2013-01-22 00:09:00,57.2,42.6,29.91,NW,315,1.3,2.0,58,0.00,,---,0.00,VWS V14.01,2013-01-22 05:09:00,
2013-01-22 00:10:00,55.2,41.6,29.91,NW,315,0.0,1.1,60,0.00,,---,0.00,VWS V14.01,2013-01-22 05:10:00,
2013-01-22 00:14:00,57.0,42.8,29.91,NW,315,2.2,2.2,59,0.00,,---,0.00,VWS V14.01,2013-01-22 05:14:00,
2013-01-22 00:15:00,55.0,41.4,29.94,NW,315,0.0,0.0,60,0.00,,---,0.00,VWS V14.01,2013-01-22 05:15:00,
2013-01-22 00:19:00,56.8,42.7,29.91,NW,315,2.0,2.2,59,0.00,,---,0.00,VWS V14.01,2013-01-22 05:19:00,
2013-01-22 00:20:00,56.8,42.7,29.91,NW,315,1.6,2.2,59,0.00,,---,0.00,VWS V14.01,2013-01-22 05:20:00,
2013-01-22 00:25:00,56.7,42.5,29.91,NW,315,0.0,2.0,59,0.00,,---,0.00,VWS V14.01,2013-01-22 05:25:00,
2013-01-22 00:30:00,56.5,42.3,29.91,NNW,338,0.0,1.6,59,0.00,,---,0.00,VWS V14.01,2013-01-22 05:30:00,
2013-01-22 00:35:00,56.3,42.2,29.91,NNW,338,1.3,1.3,59,0.00,,---,0.00,VWS V14.01,2013-01-22 05:35:00,
2013-01-22 00:40:00,56.3,42.2,29.91,NNW,338,0.0,1.3,59,0.00,,---,0.00,VWS V14.01,2013-01-22 05:40:00,
2013-01-22 00:45:00,55.9,41.8,29.91,NNW,338,0.0,0.0,59,0.00,,---,0.00,VWS V14.01,2013-01-22 05:45:00,
2013-01-22 00:50:00,55.6,41.5,29.91,NNW,338,0.0,0.0,59,0.00,,---,0.00,VWS V14.01,2013-01-22 05:50:00,
2013-01-22 00:55:00,55.2,41.2,29.91,NNW,338,0.0,0.0,59,0.00,,---,0.00,VWS V14.01,2013-01-22 05:55:00,
2013-01-22 01:00:00,55.4,41.3,29.91,NW,315,0.0,1.6,59,0.00,,---,0.00,VWS V14.01,2013-01-22 06:00:00,
2013-01-22 01:05:00,55.4,41.3,29.91,NNW,338,1.1,1.6,59,0.00,,---,0.00,VWS V14.01,2013-01-22 06:05:00,
2013-01-22 01:10:00,55.2,41.6,29.91,NW,315,0.0,1.1,60,0.00,,---,0.00,VWS V14.01,2013-01-22 06:10:00,
2013-01-22 01:15:00,55.0,41.4,29.94,NW,315,0.0,0.0,60,0.00,,---,0.00,VWS V14.01,2013-01-22 06:15:00,
2013-01-22 01:20:00,54.7,41.1,29.94,NW,315,0.0,0.0,60,0.00,,---,0.00,VWS V14.01,2013-01-22 06:20:00,
2013-01-22 01:25:00,54.3,40.8,29.94,NW,315,0.0,0.0,60,0.00,,---,0.00,VWS V14.01,2013-01-22 06:25:00,
2013-01-22 01:30:00,54.0,40.4,29.91,NW,315,0.0,0.0,60,0.00,,---,0.00,VWS V14.01,2013-01-22 06:30:00,
2013-01-22 01:35:00,53.8,40.7,29.91,NW,315,0.0,0.0,61,0.00,,---,0.00,VWS V14.01,2013-01-22 06:35:00,
2013-01-22 01:40:00,53.8,41.1,29.91,NW,315,0.0,0.0,62,0.00,,---,0.00,VWS V14.01,2013-01-22 06:40:00,
2013-01-22 01:45:00,53.8,41.1,29.91,NW,315,0.0,0.0,62,0.00,,---,0.00,VWS V14.01,2013-01-22 06:45:00,
2013-01-22 01:50:00,53.6,40.9,29.91,NW,315,0.0,0.0,62,0.00,,---,0.00,VWS V14.01,2013-01-22 06:50:00,
2013-01-22 01:55:00,53.2,41.0,29.91,NW,315,0.0,0.0,63,0.00,,---,0.00,VWS V14.01,2013-01-22 06:55:00,
2013-01-22 02:00:00,52.9,41.0,29.91,SSW,202,0.0,0.0,64,0.00,,---,0.00,VWS V14.01,2013-01-22 07:00:00,
2013-01-22 02:05:00,52.5,41.1,29.91,SSW,202,0.0,0.0,65,0.00,,---,0.00,VWS V14.01,2013-01-22 07:05:00,
2013-01-22 02:10:00,52.5,41.1,29.91,SSW,202,0.0,0.0,65,0.00,,---,0.00,VWS V14.01,2013-01-22 07:10:00,
2013-01-22 02:15:00,52.5,41.5,29.91,SSW,202,0.0,0.0,66,0.00,,---,0.00,VWS V14.01,2013-01-22 07:15:00,
2013-01-22 02:20:00,52.3,41.7,29.91,SSW,202,0.0,0.0,67,0.00,,---,0.00,VWS V14.01,2013-01-22 07:20:00,
2013-01-22 02:25:00,52.2,41.5,29.91,SSW,202,0.0,0.0,67,0.00,,---,0.00,VWS V14.01,2013-01-22 07:25:00,
2013-01-22 02:30:00,51.8,41.2,29.91,SSW,202,0.0,0.0,67,0.00,,---,0.00,VWS V14.01,2013-01-22 07:30:00,
2013-01-22 02:35:00,51.6,41.4,29.91,SSW,202,0.0,0.0,68,0.00,,---,0.00,VWS V14.01,2013-01-22 07:35:00,
2013-01-22 02:40:00,51.6,41.4,29.91,SSW,202,0.0,0.0,68,0.00,,---,0.00,VWS V14.01,2013-01-22 07:40:00,
2013-01-22 02:45:00,51.4,41.6,29.91,SSW,202,0.0,0.0,69,0.00,,---,0.00,VWS V14.01,2013-01-22 07:45:00,
2013-01-22 02:50:00,51.6,41.8,29.91,WSW,248,0.0,0.0,69,0.00,,---,0.00,VWS V14.01,2013-01-22 07:50:00,
2013-01-22 02:55:00,51.8,41.6,29.91,NW,315,0.0,0.0,68,0.00,,---,0.00,VWS V14.01,2013-01-22 07:55:00,
2013-01-22 03:00:00,52.2,42.3,29.91,NW,315,0.0,1.3,69,0.00,,---,0.00,VWS V14.01,2013-01-22 08:00:00,
2013-01-22 03:05:00,52.3,42.1,29.91,NW,315,0.0,1.3,68,0.00,,---,0.00,VWS V14.01,2013-01-22 08:05:00,
2013-01-22 03:10:00,52.2,41.9,29.91,NW,315,0.0,0.0,68,0.00,,---,0.00,VWS V14.01,2013-01-22 08:10:00,
2013-01-22 03:15:00,52.0,41.4,29.91,NW,315,0.0,0.0,67,0.00,,---,0.00,VWS V14.01,2013-01-22 08:15:00,
2013-01-22 03:20:00,51.8,41.2,29.91,NW,315,0.0,0.0,67,0.00,,---,0.00,VWS V14.01,2013-01-22 08:20:00,
2013-01-22 03:25:00,51.6,41.0,29.91,NW,315,0.0,0.0,67,0.00,,---,0.00,VWS V14.01,2013-01-22 08:25:00,
2013-01-22 03:30:00,51.6,41.0,29.91,NW,315,0.0,0.0,67,0.00,,---,0.00,VWS V14.01,2013-01-22 08:30:00,
2013-01-22 03:35:00,51.3,40.7,29.91,NW,315,0.0,0.0,67,0.00,,---,0.00,VWS V14.01,2013-01-22 08:35:00,
2013-01-22 03:40:00,51.3,40.7,29.91,NW,315,0.0,0.0,67,0.00,,---,0.00,VWS V14.01,2013-01-22 08:40:00,
2013-01-22 03:45:00,51.4,40.9,29.91,NW,315,0.0,0.0,67,0.00,,---,0.00,VWS V14.01,2013-01-22 08:45:00,
2013-01-22 03:50:00,51.3,40.7,29.91,NW,315,0.0,0.0,67,0.00,,---,0.00,VWS V14.01,2013-01-22 08:50:00,
2013-01-22 03:55:00,50.9,40.3,29.91,NW,315,0.0,0.0,67,0.00,,---,0.00,VWS V14.01,2013-01-22 08:55:00,
2013-01-22 04:00:00,51.1,40.5,29.91,NW,315,0.0,0.0,67,0.00,,---,0.00,VWS V14.01,2013-01-22 09:00:00,
2013-01-22 04:05:00,50.9,40.3,29.91,NW,315,0.0,0.0,67,0.00,,---,0.00,VWS V14.01,2013-01-22 09:05:00,
2013-01-22 04:10:00,50.9,40.3,29.91,NW,315,0.0,0.0,67,0.00,,---,0.00,VWS V14.01,2013-01-22 09:10:00,
2013-01-22 04:15:00,50.9,40.3,29.91,NW,315,0.0,0.0,67,0.00,,---,0.00,VWS V14.01,2013-01-22 09:15:00,
2013-01-22 04:20:00,50.7,40.2,29.91,NW,315,0.0,0.0,67,0.00,,---,0.00,VWS V14.01,2013-01-22 09:20:00,
2013-01-22 04:25:00,50.5,39.6,29.91,NW,315,0.0,0.0,66,0.00,,---,0.00,VWS V14.01,2013-01-22 09:25:00,
2013-01-22 04:30:00,50.7,40.2,29.91,NNW,338,0.0,0.0,67,0.00,,---,0.00,VWS V14.01,2013-01-22 09:30:00,
2013-01-22 04:35:00,51.1,40.1,29.91,NNW,338,0.0,1.1,66,0.00,,---,0.00,VWS V14.01,2013-01-22 09:35:00,
2013-01-22 04:40:00,51.1,40.1,29.91,NW,315,0.0,0.0,66,0.00,,---,0.00,VWS V14.01,2013-01-22 09:40:00,
2013-01-22 04:45:00,51.1,40.5,29.91,NW,315,0.0,0.0,67,0.00,,---,0.00,VWS V14.01,2013-01-22 09:45:00,
2013-01-22 04:50:00,50.9,40.3,29.91,NW,315,0.0,0.0,67,0.00,,---,0.00,VWS V14.01,2013-01-22 09:50:00,
2013-01-22 04:55:00,50.9,40.3,29.91,NW,315,0.0,0.0,67,0.00,,---,0.00,VWS V14.01,2013-01-22 09:55:00,
2013-01-22 05:00:00,50.9,40.3,29.91,WNW,292,0.0,0.0,67,0.00,,---,0.00,VWS V14.01,2013-01-22 10:00:00,
2013-01-22 05:05:00,50.7,39.4,29.94,NNW,338,1.6,2.2,65,0.00,,---,0.00,VWS V14.01,2013-01-22 10:05:00,
2013-01-22 05:09:00,50.7,40.6,29.91,West,270,0.0,0.0,68,0.00,,---,0.00,VWS V14.01,2013-01-22 10:09:00,
2013-01-22 05:10:00,50.7,39.0,29.94,NNW,338,2.5,2.5,64,0.00,,---,0.00,VWS V14.01,2013-01-22 10:10:00,
2013-01-22 05:14:00,50.5,40.8,29.91,West,270,0.0,0.0,69,0.00,,---,0.00,VWS V14.01,2013-01-22 10:14:00,
2013-01-22 05:15:00,50.7,38.6,29.97,WNW,292,1.3,2.5,63,0.00,,---,0.00,VWS V14.01,2013-01-22 10:15:00,
2013-01-22 05:19:00,50.5,40.8,29.91,West,270,0.0,0.0,69,0.00,,---,0.00,VWS V14.01,2013-01-22 10:19:00,
2013-01-22 05:20:00,50.7,38.2,29.97,NNW,338,1.3,2.5,62,0.00,,---,0.00,VWS V14.01,2013-01-22 10:20:00,
2013-01-22 05:24:00,50.2,40.4,29.91,West,270,0.0,0.0,69,0.00,,---,0.00,VWS V14.01,2013-01-22 10:24:00,
2013-01-22 05:25:00,50.7,38.2,29.97,West,270,1.6,2.7,62,0.00,,---,0.00,VWS V14.01,2013-01-22 10:25:00,
2013-01-22 05:29:00,49.8,40.1,29.91,West,270,0.0,0.0,69,0.00,,---,0.00,VWS V14.01,2013-01-22 10:29:00,
2013-01-22 05:30:00,50.5,37.6,29.97,WNW,292,2.7,2.7,61,0.00,,---,0.00,VWS V14.01,2013-01-22 10:30:00,
2013-01-22 05:34:00,49.8,40.1,29.91,NW,315,0.0,0.0,69,0.00,,---,0.00,VWS V14.01,2013-01-22 10:34:00,
2013-01-22 05:35:00,50.5,37.2,29.97,NNW,338,1.6,2.7,60,0.00,,---,0.00,VWS V14.01,2013-01-22 10:35:00,
2013-01-22 05:39:00,50.5,40.8,29.91,NNW,338,2.5,2.5,69,0.00,,---,0.00,VWS V14.01,2013-01-22 10:39:00,
2013-01-22 05:40:00,50.4,37.0,29.97,NW,315,1.6,2.9,60,0.00,,---,0.00,VWS V14.01,2013-01-22 10:40:00,
2013-01-22 05:44:00,50.5,40.8,29.94,NW,315,1.3,2.0,69,0.00,,---,0.00,VWS V14.01,2013-01-22 10:44:00,
2013-01-22 05:45:00,50.2,36.4,29.97,WNW,292,1.6,2.7,59,0.00,,---,0.00,VWS V14.01,2013-01-22 10:45:00,
2013-01-22 05:49:00,50.9,40.7,29.94,WNW,292,1.6,2.2,68,0.00,,---,0.00,VWS V14.01,2013-01-22 10:49:00,
2013-01-22 05:50:00,50.2,36.0,29.97,WNW,292,2.5,2.7,58,0.00,,---,0.00,VWS V14.01,2013-01-22 10:50:00,
2013-01-22 05:54:00,50.9,40.3,29.94,NW,315,2.0,2.5,67,0.00,,---,0.00,VWS V14.01,2013-01-22 10:54:00,
2013-01-22 05:55:00,50.0,35.8,29.97,NW,315,2.7,2.7,58,0.00,,---,0.00,VWS V14.01,2013-01-22 10:55:00,
2013-01-22 05:59:00,50.9,40.0,29.94,NNW,338,2.0,2.0,66,0.00,,---,0.00,VWS V14.01,2013-01-22 10:59:00,
2013-01-22 06:00:00,50.2,35.5,29.97,NW,315,2.5,2.7,57,0.00,,---,0.00,VWS V14.01,2013-01-22 11:00:00,
2013-01-22 06:04:00,50.7,39.8,29.94,NW,315,1.6,1.6,66,0.00,,---,0.00,VWS V14.01,2013-01-22 11:04:00,
2013-01-22 06:05:00,50.2,35.1,29.97,NNW,338,2.9,2.9,56,0.00,,---,0.00,VWS V14.01,2013-01-22 11:05:00,
2013-01-22 06:09:00,50.7,39.4,29.94,NW,315,2.0,2.0,65,0.00,,---,0.00,VWS V14.01,2013-01-22 11:09:00,
2013-01-22 06:10:00,50.2,34.7,29.97,NNW,338,1.6,2.9,55,0.00,,---,0.00,VWS V14.01,2013-01-22 11:10:00,
2013-01-22 06:14:00,50.7,38.6,29.97,WNW,292,1.6,2.5,63,0.00,,---,0.00,VWS V14.01,2013-01-22 11:14:00,
2013-01-22 06:15:00,50.2,34.2,29.97,NW,315,2.2,2.5,54,0.00,,---,0.00,VWS V14.01,2013-01-22 11:15:00,
2013-01-22 06:19:00,50.7,38.2,29.97,NNW,338,1.3,2.5,62,0.00,,---,0.00,VWS V14.01,2013-01-22 11:19:00,
2013-01-22 06:20:00,50.2,33.7,29.97,SW,225,2.5,2.7,53,0.00,,---,0.00,VWS V14.01,2013-01-22 11:20:00,
2013-01-22 06:24:00,50.7,38.2,29.97,WNW,292,2.2,2.7,62,0.00,,---,0.00,VWS V14.01,2013-01-22 11:24:00,
2013-01-22 06:25:00,50.4,32.9,29.97,WNW,292,2.2,2.9,51,0.00,,---,0.00,VWS V14.01,2013-01-22 11:25:00,
2013-01-22 06:29:00,50.5,37.6,29.97,WNW,292,2.2,2.2,61,0.00,,---,0.00,VWS V14.01,2013-01-22 11:29:00,
2013-01-22 06:30:00,50.5,32.6,30.00,ENE,68,1.3,3.1,50,0.00,,---,0.00,VWS V14.01,2013-01-22 11:30:00,
2013-01-22 06:34:00,50.5,37.2,29.97,NW,315,2.0,2.7,60,0.00,,---,0.00,VWS V14.01,2013-01-22 11:34:00,
2013-01-22 06:35:00,50.7,32.8,30.00,NNE,22,1.3,2.0,50,0.00,,---,0.00,VWS V14.01,2013-01-22 11:35:00,
2013-01-22 06:39:00,50.4,37.0,29.97,NW,315,1.6,2.9,60,0.00,,---,0.00,VWS V14.01,2013-01-22 11:39:00,
2013-01-22 06:40:00,50.7,32.3,30.00,NW,315,0.0,1.3,49,0.00,,---,0.00,VWS V14.01,2013-01-22 11:40:00,
2013-01-22 06:44:00,50.2,36.4,29.97,WNW,292,1.6,2.7,59,0.00,,---,0.00,VWS V14.01,2013-01-22 11:44:00,
2013-01-22 06:45:00,50.7,32.3,30.00,WNW,292,1.3,1.3,49,0.00,,---,0.00,VWS V14.01,2013-01-22 11:45:00,
2013-01-22 06:49:00,50.2,36.0,29.97,WNW,292,2.5,2.7,58,0.00,,---,0.00,VWS V14.01,2013-01-22 11:49:00,
2013-01-22 06:50:00,50.9,32.4,30.00,ENE,68,2.5,2.5,49,0.00,,---,0.00,VWS V14.01,2013-01-22 11:50:00,
2013-01-22 06:54:00,50.2,35.5,29.97,NW,315,2.0,2.5,57,0.00,,---,0.00,VWS V14.01,2013-01-22 11:54:00,
2013-01-22 06:55:00,51.1,32.1,30.00,WNW,292,1.3,2.7,48,0.00,,---,0.00,VWS V14.01,2013-01-22 11:55:00,
2013-01-22 06:59:00,50.2,35.5,29.97,NW,315,2.5,2.7,57,0.00,,---,0.00,VWS V14.01,2013-01-22 11:59:00,
2013-01-22 07:00:00,51.1,32.1,30.00,ENE,68,1.1,2.9,48,0.00,,---,0.00,VWS V14.01,2013-01-22 12:00:00,
2013-01-22 07:04:00,50.2,35.1,29.97,NNW,338,2.7,2.7,56,0.00,,---,0.00,VWS V14.01,2013-01-22 12:04:00,
2013-01-22 07:05:00,51.3,32.3,30.00,NNW,338,2.5,2.7,48,0.00,,---,0.00,VWS V14.01,2013-01-22 12:05:00,
2013-01-22 07:10:00,50.2,34.7,29.97,NNW,338,2.5,2.9,55,0.00,,---,0.00,VWS V14.01,2013-01-22 12:10:00,
2013-01-22 07:15:00,50.2,34.2,29.97,NNW,338,2.5,2.5,54,0.00,,---,0.00,VWS V14.01,2013-01-22 12:15:00,
2013-01-22 07:20:00,50.2,33.7,29.97,SW,225,2.5,2.7,53,0.00,,---,0.00,VWS V14.01,2013-01-22 12:20:00,
2013-01-22 07:25:00,50.4,32.9,29.97,WNW,292,2.2,2.9,51,0.00,,---,0.00,VWS V14.01,2013-01-22 12:25:00,
2013-01-22 07:30:00,50.5,32.6,30.00,West,270,0.0,3.1,50,0.00,,---,0.00,VWS V14.01,2013-01-22 12:30:00,
2013-01-22 07:35:00,50.7,32.8,30.00,NNE,22,1.3,2.0,50,0.00,,---,0.00,VWS V14.01,2013-01-22 12:35:00,
2013-01-22 07:40:00,50.7,32.8,30.00,NW,315,0.0,1.3,50,0.00,,---,0.00,VWS V14.01,2013-01-22 12:40:00,
2013-01-22 07:45:00,50.7,32.3,30.00,WNW,292,0.0,0.0,49,0.00,,---,0.00,VWS V14.01,2013-01-22 12:45:00,
2013-01-22 07:50:00,50.9,32.4,30.00,West,270,2.2,2.2,49,0.00,,---,0.00,VWS V14.01,2013-01-22 12:50:00,
2013-01-22 07:55:00,50.9,32.4,30.00,WSW,248,1.3,2.7,49,0.00,,---,0.00,VWS V14.01,2013-01-22 12:55:00,
2013-01-22 08:00:00,51.1,32.1,30.00,NNW,338,2.2,2.7,48,0.00,,---,0.00,VWS V14.01,2013-01-22 13:00:00,
2013-01-22 08:05:00,51.3,32.3,30.00,NNW,338,2.5,2.7,48,0.00,,---,0.00,VWS V14.01,2013-01-22 13:05:00,
2013-01-22 08:10:00,51.4,32.4,30.00,WNW,292,1.6,2.5,48,0.00,,---,0.00,VWS V14.01,2013-01-22 13:10:00,
2013-01-22 08:15:00,51.6,32.6,30.00,East,90,1.6,2.7,48,0.00,,---,0.00,VWS V14.01,2013-01-22 13:15:00,
2013-01-22 08:20:00,52.0,32.4,30.00,NNW,338,2.0,2.7,47,0.00,,---,0.00,VWS V14.01,2013-01-22 13:20:00,
2013-01-22 08:25:00,52.2,32.6,30.00,NNW,338,3.4,3.4,47,0.00,,---,0.00,VWS V14.01,2013-01-22 13:25:00,
2013-01-22 08:30:00,52.2,32.0,30.03,WNW,292,2.2,3.6,46,0.00,,---,0.00,VWS V14.01,2013-01-22 13:30:00,
2013-01-22 08:35:00,52.3,32.2,30.03,North,0,1.6,2.7,46,0.00,,---,0.00,VWS V14.01,2013-01-22 13:35:00,
2013-01-22 08:40:00,52.9,32.7,30.03,North,0,1.1,2.2,46,0.00,,---,0.00,VWS V14.01,2013-01-22 13:40:00,
2013-01-22 08:45:00,53.4,33.2,30.03,SSE,158,0.0,2.2,46,0.00,,---,0.00,VWS V14.01,2013-01-22 13:45:00,
2013-01-22 08:50:00,54.0,33.1,30.03,North,0,2.9,2.9,45,0.00,,---,0.00,VWS V14.01,2013-01-22 13:50:00,
2013-01-22 08:55:00,54.1,32.7,30.03,ENE,68,1.1,3.4,44,0.00,,---,0.00,VWS V14.01,2013-01-22 13:55:00,
2013-01-22 09:00:00,54.5,32.5,30.03,West,270,2.5,3.1,43,0.00,,---,0.00,VWS V14.01,2013-01-22 14:00:00,
2013-01-22 09:05:00,54.9,32.2,30.03,ENE,68,2.0,2.2,42,0.00,,---,0.00,VWS V14.01,2013-01-22 14:05:00,
2013-01-22 09:10:00,55.6,32.9,30.03,WNW,292,1.1,2.0,42,0.00,,---,0.00,VWS V14.01,2013-01-22 14:10:00,
2013-01-22 09:15:00,55.6,32.9,30.06,SE,135,0.0,2.5,42,0.00,,---,0.00,VWS V14.01,2013-01-22 14:15:00,
2013-01-22 09:20:00,55.6,31.7,30.06,North,0,0.0,2.2,40,0.00,,---,0.00,VWS V14.01,2013-01-22 14:20:00,
2013-01-22 09:25:00,56.1,32.2,30.06,West,270,0.9,3.8,40,0.00,,---,0.00,VWS V14.01,2013-01-22 14:25:00,
2013-01-22 09:30:00,56.3,31.7,30.03,NNE,22,2.0,3.8,39,0.00,,---,0.00,VWS V14.01,2013-01-22 14:30:00,
2013-01-22 09:35:00,57.2,32.5,30.03,ENE,68,3.1,3.1,39,0.00,,---,0.00,VWS V14.01,2013-01-22 14:35:00,
2013-01-22 09:40:00,57.2,31.8,30.03,NNE,22,0.9,2.9,38,0.00,,---,0.00,VWS V14.01,2013-01-22 14:40:00,
2013-01-22 09:45:00,58.1,32.7,30.06,WNW,292,2.2,3.6,38,0.00,,---,0.00,VWS V14.01,2013-01-22 14:45:00,
2013-01-22 09:50:00,58.5,33.0,30.06,SE,135,0.0,2.7,38,0.00,,---,0.00,VWS V14.01,2013-01-22 14:50:00,
2013-01-22 09:55:00,58.6,32.5,30.06,ENE,68,3.4,4.0,37,0.00,,---,0.00,VWS V14.01,2013-01-22 14:55:00,
2013-01-22 10:00:00,58.8,32.6,30.06,North,0,0.9,3.6,37,0.00,,---,0.00,VWS V14.01,2013-01-22 15:00:00,
2013-01-22 10:05:00,59.2,32.3,30.06,South,180,1.1,2.2,36,0.00,,---,0.00,VWS V14.01,2013-01-22 15:05:00,
2013-01-22 10:10:00,59.4,32.4,30.06,North,0,3.6,4.3,36,0.00,,---,0.00,VWS V14.01,2013-01-22 15:10:00,
2013-01-22 10:15:00,59.2,31.6,30.06,NW,315,2.5,4.3,35,0.00,,---,0.00,VWS V14.01,2013-01-22 15:15:00,
2013-01-22 10:20:00,59.7,32.0,30.06,NNW,338,3.8,4.3,35,0.00,,---,0.00,VWS V14.01,2013-01-22 15:20:00,
2013-01-22 10:25:00,59.7,32.0,30.06,East,90,1.1,2.7,35,0.00,,---,0.00,VWS V14.01,2013-01-22 15:25:00,
2013-01-22 10:30:00,60.4,32.7,30.06,NW,315,1.3,3.6,35,0.00,,---,0.00,VWS V14.01,2013-01-22 15:30:00,
2013-01-22 10:35:00,61.9,33.2,30.06,WSW,248,1.3,2.5,34,0.00,,---,0.00,VWS V14.01,2013-01-22 15:35:00,
2013-01-22 10:40:00,61.9,33.2,30.06,WNW,292,1.6,2.9,34,0.00,,---,0.00,VWS V14.01,2013-01-22 15:40:00,
2013-01-22 10:45:00,61.9,33.2,30.09,NW,315,3.4,3.4,34,0.00,,---,0.00,VWS V14.01,2013-01-22 15:45:00,
2013-01-22 10:50:00,62.2,32.8,30.09,ENE,68,2.2,3.8,33,0.00,,---,0.00,VWS V14.01,2013-01-22 15:50:00,
2013-01-22 10:55:00,62.4,33.7,30.09,NW,315,3.8,3.8,34,0.00,,---,0.00,VWS V14.01,2013-01-22 15:55:00,
2013-01-22 11:00:00,61.3,30.5,30.06,ENE,68,2.0,3.8,31,0.00,,---,0.00,VWS V14.01,2013-01-22 16:00:00,
2013-01-22 11:05:00,61.9,30.9,30.06,NE,45,2.7,2.9,31,0.00,,---,0.00,VWS V14.01,2013-01-22 16:05:00,
2013-01-22 11:10:00,61.9,30.9,30.06,WNW,292,2.5,2.5,31,0.00,,---,0.00,VWS V14.01,2013-01-22 16:10:00,
2013-01-22 11:15:00,62.6,31.6,30.06,NNW,338,3.1,3.1,31,0.00,,---,0.00,VWS V14.01,2013-01-22 16:15:00,
2013-01-22 11:20:00,64.0,32.0,30.06,ENE,68,1.6,3.1,30,0.00,,---,0.00,VWS V14.01,2013-01-22 16:20:00,
2013-01-22 11:25:00,63.5,30.7,30.06,WSW,248,4.0,4.0,29,0.00,,---,0.00,VWS V14.01,2013-01-22 16:25:00,
2013-01-22 11:30:00,63.7,30.9,30.06,NNE,22,4.9,5.4,29,0.00,,---,0.00,VWS V14.01,2013-01-22 16:30:00,
2013-01-22 11:35:00,64.0,31.2,30.06,ENE,68,0.0,3.4,29,0.00,,---,0.00,VWS V14.01,2013-01-22 16:35:00,
2013-01-22 11:40:00,63.3,29.7,30.06,East,90,0.0,6.7,28,0.00,,---,0.00,VWS V14.01,2013-01-22 16:40:00,
2013-01-22 11:45:00,63.5,29.8,30.06,ENE,68,4.9,4.9,28,0.00,,---,0.00,VWS V14.01,2013-01-22 16:45:00,
2013-01-22 11:50:00,62.4,28.0,30.06,East,90,2.9,4.9,27,0.00,,---,0.00,VWS V14.01,2013-01-22 16:50:00,
2013-01-22 11:55:00,62.2,27.9,30.06,SE,135,4.3,5.4,27,0.00,,---,0.00,VWS V14.01,2013-01-22 16:55:00,
2013-01-22 12:00:00,61.9,27.6,30.06,NNE,22,1.6,3.8,27,0.00,,---,0.00,VWS V14.01,2013-01-22 17:00:00,
2013-01-22 12:05:00,62.2,27.9,30.06,NNE,22,1.3,3.4,27,0.00,,---,0.00,VWS V14.01,2013-01-22 17:05:00,
2013-01-22 12:10:00,62.6,28.2,30.06,East,90,2.2,3.4,27,0.00,,---,0.00,VWS V14.01,2013-01-22 17:10:00,
2013-01-22 12:15:00,61.7,27.4,30.06,ENE,68,2.9,4.9,27,0.00,,---,0.00,VWS V14.01,2013-01-22 17:15:00,
2013-01-22 12:20:00,62.1,27.7,30.06,North,0,2.7,4.3,27,0.00,,---,0.00,VWS V14.01,2013-01-22 17:20:00,
2013-01-22 12:25:00,62.8,28.3,30.06,East,90,0.0,3.6,27,0.00,,---,0.00,VWS V14.01,2013-01-22 17:25:00,
2013-01-22 12:30:00,63.1,28.6,30.06,WNW,292,1.3,3.6,27,0.00,,---,0.00,VWS V14.01,2013-01-22 17:30:00,
2013-01-22 12:35:00,63.0,27.6,30.06,NNW,338,2.2,4.3,26,0.00,,---,0.00,VWS V14.01,2013-01-22 17:35:00,
2013-01-22 12:40:00,63.1,28.6,30.06,WNW,292,1.6,4.0,27,0.00,,---,0.00,VWS V14.01,2013-01-22 17:40:00,
2013-01-22 12:45:00,63.5,29.0,30.06,WNW,292,1.1,3.1,27,0.00,,---,0.00,VWS V14.01,2013-01-22 17:45:00,
2013-01-22 12:50:00,63.0,27.6,30.06,NW,315,2.5,4.9,26,0.00,,---,0.00,VWS V14.01,2013-01-22 17:50:00,
2013-01-22 12:55:00,64.4,28.8,30.06,East,90,0.0,2.5,26,0.00,,---,0.00,VWS V14.01,2013-01-22 17:55:00,
2013-01-22 13:00:00,65.8,30.0,30.03,NW,315,3.4,3.4,26,0.00,,---,0.00,VWS V14.01,2013-01-22 18:00:00,
2013-01-22 13:05:00,64.9,28.3,30.03,North,0,1.6,4.3,25,0.00,,---,0.00,VWS V14.01,2013-01-22 18:05:00,
2013-01-22 13:10:00,65.1,28.5,30.03,ESE,112,1.3,2.9,25,0.00,,---,0.00,VWS V14.01,2013-01-22 18:10:00,
2013-01-22 13:15:00,65.1,28.5,30.03,North,0,1.3,3.8,25,0.00,,---,0.00,VWS V14.01,2013-01-22 18:15:00,
2013-01-22 13:20:00,64.4,27.8,30.03,NNW,338,1.3,3.4,25,0.00,,---,0.00,VWS V14.01,2013-01-22 18:20:00,
2013-01-22 13:25:00,64.9,28.3,30.03,West,270,3.8,3.8,25,0.00,,---,0.00,VWS V14.01,2013-01-22 18:25:00,
2013-01-22 13:30:00,65.3,28.6,30.03,WNW,292,2.0,3.8,25,0.00,,---,0.00,VWS V14.01,2013-01-22 18:30:00,
2013-01-22 13:35:00,65.1,27.5,30.03,East,90,3.8,3.8,24,0.00,,---,0.00,VWS V14.01,2013-01-22 18:35:00,
2013-01-22 13:40:00,64.8,28.1,30.03,NW,315,1.6,4.7,25,0.00,,---,0.00,VWS V14.01,2013-01-22 18:40:00,
2013-01-22 13:45:00,64.8,27.2,30.03,South,180,0.0,3.1,24,0.00,,---,0.00,VWS V14.01,2013-01-22 18:45:00,
2013-01-22 13:50:00,64.9,27.3,30.03,ENE,68,4.0,4.0,24,0.00,,---,0.00,VWS V14.01,2013-01-22 18:50:00,
2013-01-22 13:55:00,65.1,27.5,30.03,South,180,0.9,4.0,24,0.00,,---,0.00,VWS V14.01,2013-01-22 18:55:00,
2013-01-22 14:00:00,63.3,25.9,30.03,NNW,338,0.0,3.6,24,0.00,,---,0.00,VWS V14.01,2013-01-22 19:00:00,
2013-01-22 14:01:00,65.5,28.8,30.03,SE,135,1.1,2.5,25,0.00,,---,0.00,VWS V14.01,2013-01-22 19:01:00,
2013-01-22 14:05:00,63.5,27.1,30.03,WNW,292,1.1,3.6,25,0.00,,---,0.00,VWS V14.01,2013-01-22 19:05:00,
2013-01-22 14:06:00,65.7,28.9,30.03,NNE,22,1.6,2.7,25,0.00,,---,0.00,VWS V14.01,2013-01-22 19:06:00,
2013-01-22 14:10:00,63.1,25.8,30.03,ENE,68,3.8,3.8,24,0.00,,---,0.00,VWS V14.01,2013-01-22 19:10:00,
2013-01-22 14:11:00,65.5,27.8,30.03,North,0,2.2,3.1,24,0.00,,---,0.00,VWS V14.01,2013-01-22 19:11:00,
2013-01-22 14:15:00,63.1,26.8,30.03,West,270,0.0,3.8,25,0.00,,---,0.00,VWS V14.01,2013-01-22 19:15:00,
2013-01-22 14:16:00,65.3,27.6,30.03,ENE,68,3.6,3.6,24,0.00,,---,0.00,VWS V14.01,2013-01-22 19:16:00,
2013-01-22 14:20:00,62.8,25.5,30.03,NW,315,2.0,3.6,24,0.00,,---,0.00,VWS V14.01,2013-01-22 19:20:00,
2013-01-22 14:21:00,64.9,27.3,30.03,East,90,3.1,4.9,24,0.00,,---,0.00,VWS V14.01,2013-01-22 19:21:00,
2013-01-22 14:25:00,63.0,25.6,30.03,NW,315,1.3,3.6,24,0.00,,---,0.00,VWS V14.01,2013-01-22 19:25:00,
2013-01-22 14:26:00,63.9,26.4,30.03,NE,45,3.1,6.3,24,0.00,,---,0.00,VWS V14.01,2013-01-22 19:26:00,
2013-01-22 14:30:00,63.1,25.8,30.03,East,90,2.9,5.4,24,0.00,,---,0.00,VWS V14.01,2013-01-22 19:30:00,
2013-01-22 14:31:00,63.7,26.2,30.03,East,90,4.9,6.0,24,0.00,,---,0.00,VWS V14.01,2013-01-22 19:31:00,
2013-01-22 14:35:00,63.0,25.6,30.03,NW,315,3.6,4.0,24,0.00,,---,0.00,VWS V14.01,2013-01-22 19:35:00,
2013-01-22 14:36:00,64.0,26.5,30.03,South,180,0.9,4.9,24,0.00,,---,0.00,VWS V14.01,2013-01-22 19:36:00,
2013-01-22 14:40:00,63.0,25.6,30.03,NW,315,3.4,3.6,24,0.00,,---,0.00,VWS V14.01,2013-01-22 19:40:00,
2013-01-22 14:41:00,64.2,26.7,30.03,East,90,1.3,2.5,24,0.00,,---,0.00,VWS V14.01,2013-01-22 19:41:00,
2013-01-22 14:45:00,63.0,25.6,30.03,NNW,338,0.0,3.6,24,0.00,,---,0.00,VWS V14.01,2013-01-22 19:45:00,
2013-01-22 14:46:00,63.9,26.4,30.03,WSW,248,2.9,2.9,24,0.00,,---,0.00,VWS V14.01,2013-01-22 19:46:00,
2013-01-22 14:50:00,63.1,25.8,30.03,ENE,68,0.0,2.9,24,0.00,,---,0.00,VWS V14.01,2013-01-22 19:50:00,
2013-01-22 14:51:00,63.3,25.9,30.03,West,270,2.5,4.0,24,0.00,,---,0.00,VWS V14.01,2013-01-22 19:51:00,
2013-01-22 14:55:00,62.8,25.5,30.03,ENE,68,2.5,3.8,24,0.00,,---,0.00,VWS V14.01,2013-01-22 19:55:00,
2013-01-22 14:56:00,63.5,26.1,30.03,NE,45,2.0,3.4,24,0.00,,---,0.00,VWS V14.01,2013-01-22 19:56:00,
2013-01-22 15:00:00,62.2,26.0,30.03,ESE,112,0.0,4.0,25,0.00,,---,0.00,VWS V14.01,2013-01-22 20:00:00,
2013-01-22 15:01:00,63.3,25.9,30.03,NNW,338,0.0,3.6,24,0.00,,---,0.00,VWS V14.01,2013-01-22 20:01:00,
2013-01-22 15:05:00,62.1,25.9,30.03,ENE,68,2.0,3.1,25,0.00,,---,0.00,VWS V14.01,2013-01-22 20:05:00,
2013-01-22 15:10:00,63.1,25.8,30.03,ENE,68,3.8,3.8,24,0.00,,---,0.00,VWS V14.01,2013-01-22 20:10:00,
2013-01-22 15:15:00,63.1,26.8,30.03,West,270,0.0,3.8,25,0.00,,---,0.00,VWS V14.01,2013-01-22 20:15:00,
2013-01-22 15:20:00,62.8,25.5,30.03,NW,315,2.0,3.6,24,0.00,,---,0.00,VWS V14.01,2013-01-22 20:20:00,
2013-01-22 15:25:00,63.0,25.6,30.03,NW,315,1.3,3.6,24,0.00,,---,0.00,VWS V14.01,2013-01-22 20:25:00,
2013-01-22 15:30:00,63.1,25.8,30.03,East,90,2.9,5.4,24,0.00,,---,0.00,VWS V14.01,2013-01-22 20:30:00,
2013-01-22 15:35:00,63.0,25.6,30.03,NW,315,3.6,4.0,24,0.00,,---,0.00,VWS V14.01,2013-01-22 20:35:00,
2013-01-22 15:40:00,63.0,25.6,30.03,NW,315,3.4,3.6,24,0.00,,---,0.00,VWS V14.01,2013-01-22 20:40:00,
2013-01-22 15:45:00,63.0,25.6,30.03,NNW,338,0.0,3.6,24,0.00,,---,0.00,VWS V14.01,2013-01-22 20:45:00,
2013-01-22 15:50:00,63.1,25.8,30.03,ENE,68,0.0,2.9,24,0.00,,---,0.00,VWS V14.01,2013-01-22 20:50:00,
2013-01-22 15:55:00,62.8,25.5,30.03,ENE,68,2.5,3.8,24,0.00,,---,0.00,VWS V14.01,2013-01-22 20:55:00,
2013-01-22 16:00:00,62.2,26.0,30.03,ESE,112,0.0,4.0,25,0.00,,---,0.00,VWS V14.01,2013-01-22 21:00:00,
2013-01-22 16:05:00,62.1,25.9,30.03,ENE,68,2.0,3.1,25,0.00,,---,0.00,VWS V14.01,2013-01-22 21:05:00,
2013-01-22 16:10:00,61.9,25.7,30.03,WSW,248,2.5,2.5,25,0.00,,---,0.00,VWS V14.01,2013-01-22 21:10:00,
2013-01-22 16:15:00,61.7,25.5,30.03,ENE,68,2.0,2.5,25,0.00,,---,0.00,VWS V14.01,2013-01-22 21:15:00,
2013-01-22 16:20:00,61.5,25.4,30.03,East,90,4.7,4.7,25,0.00,,---,0.00,VWS V14.01,2013-01-22 21:20:00,
2013-01-22 16:25:00,57.7,24.0,30.06,ESE,112,0.0,0.0,27,0.00,,---,0.00,VWS V14.01,2013-01-22 21:25:00,
2013-01-22 16:27:00,61.0,24.9,30.03,North,0,0.9,3.1,25,0.00,,---,0.00,VWS V14.01,2013-01-22 21:27:00,
2013-01-22 16:30:00,57.4,23.7,30.06,ESE,112,0.0,0.0,27,0.00,,---,0.00,VWS V14.01,2013-01-22 21:30:00,
2013-01-22 16:32:00,60.6,24.6,30.03,NNE,22,1.6,1.6,25,0.00,,---,0.00,VWS V14.01,2013-01-22 21:32:00,
2013-01-22 16:35:00,56.8,23.2,30.06,ESE,112,0.0,0.0,27,0.00,,---,0.00,VWS V14.01,2013-01-22 21:35:00,
2013-01-22 16:37:00,60.4,24.5,30.03,East,90,2.2,2.2,25,0.00,,---,0.00,VWS V14.01,2013-01-22 21:37:00,
2013-01-22 16:40:00,56.5,23.8,30.06,ESE,112,0.0,0.0,28,0.00,,---,0.00,VWS V14.01,2013-01-22 21:40:00,
2013-01-22 16:42:00,60.1,24.2,30.03,ENE,68,1.3,1.3,25,0.00,,---,0.00,VWS V14.01,2013-01-22 21:42:00,
2013-01-22 16:45:00,55.9,23.3,30.06,SSE,158,0.0,0.0,28,0.00,,---,0.00,VWS V14.01,2013-01-22 21:45:00,
2013-01-22 16:47:00,59.9,24.0,30.06,ESE,112,3.6,3.6,25,0.00,,---,0.00,VWS V14.01,2013-01-22 21:47:00,
2013-01-22 16:50:00,59.7,23.9,30.06,SE,135,0.0,3.6,25,0.00,,---,0.00,VWS V14.01,2013-01-22 21:50:00,
2013-01-22 16:55:00,59.5,24.6,30.06,NNW,338,0.0,0.0,26,0.00,,---,0.00,VWS V14.01,2013-01-22 21:55:00,
2013-01-22 17:00:00,59.2,24.3,30.03,ESE,112,0.0,2.7,26,0.00,,---,0.00,VWS V14.01,2013-01-22 22:00:00,
2013-01-22 17:05:00,58.8,24.0,30.03,SSE,158,0.0,0.0,26,0.00,,---,0.00,VWS V14.01,2013-01-22 22:05:00,
2013-01-22 17:10:00,58.8,24.0,30.03,ESE,112,0.0,1.6,26,0.00,,---,0.00,VWS V14.01,2013-01-22 22:10:00,
2013-01-22 17:15:00,58.5,23.7,30.06,East,90,0.0,0.0,26,0.00,,---,0.00,VWS V14.01,2013-01-22 22:15:00,
2013-01-22 17:20:00,58.1,24.3,30.06,East,90,0.0,0.0,27,0.00,,---,0.00,VWS V14.01,2013-01-22 22:20:00,
2013-01-22 17:25:00,57.7,24.0,30.06,ESE,112,0.0,0.0,27,0.00,,---,0.00,VWS V14.01,2013-01-22 22:25:00,
2013-01-22 17:30:00,57.4,23.7,30.06,ESE,112,0.0,0.0,27,0.00,,---,0.00,VWS V14.01,2013-01-22 22:30:00,
2013-01-22 17:35:00,56.8,23.2,30.06,ESE,112,0.0,0.0,27,0.00,,---,0.00,VWS V14.01,2013-01-22 22:35:00,
2013-01-22 17:40:00,56.5,23.8,30.06,ESE,112,0.0,0.0,28,0.00,,---,0.00,VWS V14.01,2013-01-22 22:40:00,
2013-01-22 17:45:00,55.9,23.3,30.06,SSE,158,0.0,0.0,28,0.00,,---,0.00,VWS V14.01,2013-01-22 22:45:00,
2013-01-22 17:50:00,55.4,22.9,30.06,SSE,158,0.0,0.0,28,0.00,,---,0.00,VWS V14.01,2013-01-22 22:50:00,
2013-01-22 17:55:00,54.9,23.2,30.06,SSE,158,0.0,0.0,29,0.00,,---,0.00,VWS V14.01,2013-01-22 22:55:00,
2013-01-22 18:00:00,50.4,24.4,30.06,SSE,158,0.0,0.0,36,0.00,,---,0.00,VWS V14.01,2013-01-22 23:00:00,
2013-01-22 18:02:00,54.3,23.6,30.06,SSE,158,0.0,0.0,30,0.00,,---,0.00,VWS V14.01,2013-01-22 23:02:00,
2013-01-22 18:05:00,50.0,24.8,30.06,SSE,158,0.0,0.0,37,0.00,,---,0.00,VWS V14.01,2013-01-22 23:05:00,
2013-01-22 18:07:00,53.8,23.1,30.06,SSE,158,0.0,0.0,30,0.00,,---,0.00,VWS V14.01,2013-01-22 23:07:00,
2013-01-22 18:10:00,49.8,24.6,30.06,SSE,158,0.0,0.0,37,0.00,,---,0.00,VWS V14.01,2013-01-22 23:10:00,
2013-01-22 18:12:00,53.1,23.2,30.06,SSE,158,0.0,0.0,31,0.00,,---,0.00,VWS V14.01,2013-01-22 23:12:00,
2013-01-22 18:15:00,49.3,24.8,30.06,SSE,158,0.0,0.0,38,0.00,,---,0.00,VWS V14.01,2013-01-22 23:15:00,
2013-01-22 18:17:00,52.7,22.9,30.06,SSE,158,0.0,0.0,31,0.00,,---,0.00,VWS V14.01,2013-01-22 23:17:00,
2013-01-22 18:20:00,48.7,24.3,30.06,SSE,158,0.0,0.0,38,0.00,,---,0.00,VWS V14.01,2013-01-22 23:20:00,
2013-01-22 18:25:00,51.4,22.6,30.06,SSE,158,0.0,0.0,32,0.00,,---,0.00,VWS V14.01,2013-01-22 23:25:00,
2013-01-22 18:30:00,51.1,23.0,30.06,SSE,158,0.0,0.0,33,0.00,,---,0.00,VWS V14.01,2013-01-22 23:30:00,
2013-01-22 18:35:00,50.7,23.4,30.06,SSE,158,0.0,0.0,34,0.00,,---,0.00,VWS V14.01,2013-01-22 23:35:00,
2013-01-22 18:40:00,50.4,23.8,30.06,SSE,158,0.0,0.0,35,0.00,,---,0.00,VWS V14.01,2013-01-22 23:40:00,
2013-01-22 18:45:00,50.2,24.3,30.06,SSE,158,0.0,0.0,36,0.00,,---,0.00,VWS V14.01,2013-01-22 23:45:00,
2013-01-22 18:50:00,50.0,24.1,30.06,SSE,158,0.0,0.0,36,0.00,,---,0.00,VWS V14.01,2013-01-22 23:50:00,
2013-01-22 18:55:00,50.4,24.4,30.06,SSE,158,0.0,0.0,36,0.00,,---,0.00,VWS V14.01,2013-01-22 23:55:00,
2013-01-22 19:00:00,50.4,24.4,30.06,SSE,158,0.0,0.0,36,0.00,,---,0.00,VWS V14.01,2013-01-23 00:00:00,
2013-01-22 19:05:00,50.0,24.8,30.06,SSE,158,0.0,0.0,37,0.00,,---,0.00,VWS V14.01,2013-01-23 00:05:00,
2013-01-22 19:10:00,49.8,24.6,30.06,SSE,158,0.0,0.0,37,0.00,,---,0.00,VWS V14.01,2013-01-23 00:10:00,
2013-01-22 19:15:00,49.3,24.8,30.06,SSE,158,0.0,0.0,38,0.00,,---,0.00,VWS V14.01,2013-01-23 00:15:00,
2013-01-22 19:20:00,48.7,24.3,30.06,SSE,158,0.0,0.0,38,0.00,,---,0.00,VWS V14.01,2013-01-23 00:20:00,
2013-01-22 19:25:00,48.7,24.3,30.06,SSE,158,0.0,0.0,38,0.00,,---,0.00,VWS V14.01,2013-01-23 00:25:00,
2013-01-22 19:30:00,48.7,24.9,30.09,SSE,158,0.0,0.0,39,0.00,,---,0.00,VWS V14.01,2013-01-23 00:30:00,
2013-01-22 19:35:00,48.2,24.4,30.09,SSE,158,0.0,0.0,39,0.00,,---,0.00,VWS V14.01,2013-01-23 00:35:00,
2013-01-22 19:40:00,47.8,24.7,30.09,SSE,158,0.0,0.0,40,0.00,,---,0.00,VWS V14.01,2013-01-23 00:40:00,
2013-01-22 19:45:00,48.0,24.9,30.06,SSE,158,0.0,0.0,40,0.00,,---,0.00,VWS V14.01,2013-01-23 00:45:00,
2013-01-22 19:50:00,47.5,25.0,30.06,SSE,158,0.0,0.0,41,0.00,,---,0.00,VWS V14.01,2013-01-23 00:50:00,
2013-01-22 19:55:00,47.3,24.8,30.06,SSE,158,0.0,0.0,41,0.00,,---,0.00,VWS V14.01,2013-01-23 00:55:00,
2013-01-22 20:00:00,47.5,25.0,30.06,SSE,158,0.0,0.0,41,0.00,,---,0.00,VWS V14.01,2013-01-23 01:00:00,
2013-01-22 20:05:00,47.3,25.4,30.06,SSE,158,0.0,0.0,42,0.00,,---,0.00,VWS V14.01,2013-01-23 01:05:00,
2013-01-22 20:10:00,46.9,25.1,30.06,SSE,158,0.0,0.0,42,0.00,,---,0.00,VWS V14.01,2013-01-23 01:10:00,
2013-01-22 20:15:00,47.1,25.8,30.09,SSE,158,0.0,0.0,43,0.00,,---,0.00,VWS V14.01,2013-01-23 01:15:00,
2013-01-22 20:20:00,46.9,25.6,30.09,SSE,158,0.0,0.0,43,0.00,,---,0.00,VWS V14.01,2013-01-23 01:20:00,
2013-01-22 20:25:00,46.6,25.9,30.09,SSE,158,0.0,0.0,44,0.00,,---,0.00,VWS V14.01,2013-01-23 01:25:00,
2013-01-22 20:30:00,46.0,25.9,30.09,SSE,158,0.0,0.0,45,0.00,,---,0.00,VWS V14.01,2013-01-23 01:30:00,
2013-01-22 20:35:00,46.0,26.4,30.09,SSE,158,0.0,0.0,46,0.00,,---,0.00,VWS V14.01,2013-01-23 01:35:00,
2013-01-22 20:40:00,45.1,25.6,30.09,ESE,112,0.0,0.0,46,0.00,,---,0.00,VWS V14.01,2013-01-23 01:40:00,
2013-01-22 20:45:00,44.8,25.8,30.09,ESE,112,0.0,0.0,47,0.00,,---,0.00,VWS V14.01,2013-01-23 01:45:00,
2013-01-22 20:50:00,45.1,26.1,30.09,ESE,112,0.0,0.0,47,0.00,,---,0.00,VWS V14.01,2013-01-23 01:50:00,
2013-01-22 20:55:00,45.0,26.0,30.09,ESE,112,0.0,0.0,47,0.00,,---,0.00,VWS V14.01,2013-01-23 01:55:00,
2013-01-22 21:00:00,45.0,26.5,30.09,ESE,112,0.0,0.0,48,0.00,,---,0.00,VWS V14.01,2013-01-23 02:00:00,
2013-01-22 21:05:00,45.0,26.5,30.09,SSE,158,0.0,0.0,48,0.00,,---,0.00,VWS V14.01,2013-01-23 02:05:00,
2013-01-22 21:10:00,44.8,26.8,30.09,SSE,158,0.0,0.0,49,0.00,,---,0.00,VWS V14.01,2013-01-23 02:10:00,
2013-01-22 21:15:00,44.6,26.6,30.09,SSE,158,0.0,0.0,49,0.00,,---,0.00,VWS V14.01,2013-01-23 02:15:00,
2013-01-22 21:20:00,44.1,26.6,30.09,SSE,158,0.0,0.0,50,0.00,,---,0.00,VWS V14.01,2013-01-23 02:20:00,
2013-01-22 21:25:00,43.3,26.0,30.09,SSE,158,0.0,0.0,50,0.00,,---,0.00,VWS V14.01,2013-01-23 02:25:00,
2013-01-22 21:30:00,42.8,25.9,30.09,SSE,158,0.0,0.0,51,0.00,,---,0.00,VWS V14.01,2013-01-23 02:30:00,
2013-01-22 21:35:00,42.8,25.9,30.09,SSE,158,0.0,0.0,51,0.00,,---,0.00,VWS V14.01,2013-01-23 02:35:00,
2013-01-22 21:40:00,42.8,26.4,30.09,SSE,158,0.0,0.0,52,0.00,,---,0.00,VWS V14.01,2013-01-23 02:40:00,
2013-01-22 21:45:00,43.5,27.1,30.09,SSE,158,0.0,0.0,52,0.00,,---,0.00,VWS V14.01,2013-01-23 02:45:00,
2013-01-22 21:50:00,43.2,27.2,30.09,SSE,158,0.0,0.0,53,0.00,,---,0.00,VWS V14.01,2013-01-23 02:50:00,
2013-01-22 21:55:00,42.8,27.3,30.09,SSE,158,0.0,0.0,54,0.00,,---,0.00,VWS V14.01,2013-01-23 02:55:00,
2013-01-22 22:00:00,42.8,27.3,30.09,SSE,158,0.0,0.0,54,0.00,,---,0.00,VWS V14.01,2013-01-23 03:00:00,
2013-01-22 22:05:00,42.8,27.3,30.09,SSE,158,0.0,0.0,54,0.00,,---,0.00,VWS V14.01,2013-01-23 03:05:00,
2013-01-22 22:10:00,43.0,27.9,30.09,SSE,158,0.0,0.0,55,0.00,,---,0.00,VWS V14.01,2013-01-23 03:10:00,
2013-01-22 22:15:00,42.8,28.2,30.12,SSE,158,0.0,0.0,56,0.00,,---,0.00,VWS V14.01,2013-01-23 03:15:00,
2013-01-22 22:20:00,42.8,27.8,30.12,SSE,158,0.0,0.0,55,0.00,,---,0.00,VWS V14.01,2013-01-23 03:20:00,
2013-01-22 22:25:00,42.6,28.5,30.12,SSE,158,0.0,0.0,57,0.00,,---,0.00,VWS V14.01,2013-01-23 03:25:00,
2013-01-22 22:30:00,42.6,28.5,30.09,SSE,158,0.0,0.0,57,0.00,,---,0.00,VWS V14.01,2013-01-23 03:30:00,
2013-01-22 22:35:00,42.8,28.2,30.09,SSE,158,0.0,0.0,56,0.00,,---,0.00,VWS V14.01,2013-01-23 03:35:00,
2013-01-22 22:40:00,42.6,28.9,30.09,SSE,158,0.0,0.0,58,0.00,,---,0.00,VWS V14.01,2013-01-23 03:40:00,
2013-01-22 22:45:00,42.3,28.5,30.09,SSE,158,0.0,0.0,58,0.00,,---,0.00,VWS V14.01,2013-01-23 03:45:00,
2013-01-22 22:50:00,42.3,28.5,30.09,SSE,158,0.0,0.0,58,0.00,,---,0.00,VWS V14.01,2013-01-23 03:50:00,
2013-01-22 22:55:00,42.1,28.4,30.09,SSE,158,0.0,0.0,58,0.00,,---,0.00,VWS V14.01,2013-01-23 03:55:00,
2013-01-22 23:00:00,42.3,29.0,30.09,SSE,158,0.0,0.0,59,0.00,,---,0.00,VWS V14.01,2013-01-23 04:00:00,
2013-01-22 23:05:00,42.3,29.0,30.09,SSE,158,0.0,0.0,59,0.00,,---,0.00,VWS V14.01,2013-01-23 04:05:00,
2013-01-22 23:10:00,42.4,29.1,30.09,SSE,158,0.0,0.0,59,0.00,,---,0.00,VWS V14.01,2013-01-23 04:10:00,
2013-01-22 23:15:00,42.3,29.4,30.09,East,90,0.0,0.0,60,0.00,,---,0.00,VWS V14.01,2013-01-23 04:15:00,
2013-01-22 23:20:00,41.9,29.0,30.09,East,90,0.0,0.0,60,0.00,,---,0.00,VWS V14.01,2013-01-23 04:20:00,
2013-01-22 23:25:00,42.1,29.2,30.09,East,90,0.0,0.0,60,0.00,,---,0.00,VWS V14.01,2013-01-23 04:25:00,
2013-01-22 23:30:00,42.3,29.8,30.09,East,90,0.0,0.0,61,0.00,,---,0.00,VWS V14.01,2013-01-23 04:30:00,
2013-01-22 23:35:00,42.1,29.6,30.09,SSE,158,0.0,0.0,61,0.00,,---,0.00,VWS V14.01,2013-01-23 04:35:00,
2013-01-22 23:40:00,41.7,29.7,30.09,SSE,158,0.0,0.0,62,0.00,,---,0.00,VWS V14.01,2013-01-23 04:40:00,
2013-01-22 23:45:00,41.5,29.5,30.09,SSE,158,0.0,0.0,62,0.00,,---,0.00,VWS V14.01,2013-01-23 04:45:00,
2013-01-22 23:50:00,41.2,29.2,30.09,SSE,158,0.0,0.0,62,0.00,,---,0.00,VWS V14.01,2013-01-23 04:50:00,
2013-01-22 23:55:00,41.0,29.4,30.09,SSE,158,0.0,0.0,63,0.00,,---,0.00,VWS V14.01,2013-01-23 04:55:00,